sensor_id;sensor_type;location;lat;lon;timestamp;temperature;humidity
4813;DHT22;2420;51.202;8.698;2023-03-12T00:00:20;-2.90;1.00
4813;DHT22;2420;51.202;8.698;2023-03-12T00:02:46;-2.90;1.00
4813;DHT22;2420;51.202;8.698;2023-03-12T00:05:12;-2.70;1.00
4813;DHT22;2420;51.202;8.698;2023-03-12T00:07:37;-2.50;1.00
4813;DHT22;2420;51.202;8.698;2023-03-12T00:10:05;-2.70;1.00
4813;DHT22;2420;51.202;8.698;2023-03-12T00:12:30;-2.60;1.00
4813;DHT22;2420;51.202;8.698;2023-03-12T00:14:56;-2.60;1.00
4813;DHT22;2420;51.202;8.698;2023-03-12T00:17:22;-2.70;1.00
4813;DHT22;2420;51.202;8.698;2023-03-12T00:19:51;-2.40;1.00
4813;DHT22;2420;51.202;8.698;2023-03-12T00:22:17;-2.30;1.00
4813;DHT22;2420;51.202;8.698;2023-03-12T00:24:42;-2.30;1.00
4813;DHT22;2420;51.202;8.698;2023-03-12T00:27:08;-2.30;1.00
4813;DHT22;2420;51.202;8.698;2023-03-12T00:29:34;-2.40;1.00
4813;DHT22;2420;51.202;8.698;2023-03-12T00:32:00;-2.50;1.00
4813;DHT22;2420;51.202;8.698;2023-03-12T00:34:26;-2.40;1.00
4813;DHT22;2420;51.202;8.698;2023-03-12T00:36:51;-2.50;1.00
4813;DHT22;2420;51.202;8.698;2023-03-12T00:39:17;-2.40;1.00
4813;DHT22;2420;51.202;8.698;2023-03-12T00:41:42;-2.40;1.00
4813;DHT22;2420;51.202;8.698;2023-03-12T00:44:08;-2.50;1.00
4813;DHT22;2420;51.202;8.698;2023-03-12T00:46:33;-2.20;1.00
4813;DHT22;2420;51.202;8.698;2023-03-12T00:48:59;-2.50;1.00
4813;DHT22;2420;51.202;8.698;2023-03-12T00:51:24;-2.30;1.00
4813;DHT22;2420;51.202;8.698;2023-03-12T00:53:50;-2.20;1.00
4813;DHT22;2420;51.202;8.698;2023-03-12T00:56:15;-2.30;1.00
4813;DHT22;2420;51.202;8.698;2023-03-12T00:58:41;-2.40;1.00
4813;DHT22;2420;51.202;8.698;2023-03-12T01:01:07;-2.40;1.00
4813;DHT22;2420;51.202;8.698;2023-03-12T01:03:33;-2.50;1.00
4813;DHT22;2420;51.202;8.698;2023-03-12T01:05:58;-2.20;1.00
4813;DHT22;2420;51.202;8.698;2023-03-12T01:08:24;-2.30;1.00
4813;DHT22;2420;51.202;8.698;2023-03-12T01:10:50;-2.50;1.00
4813;DHT22;2420;51.202;8.698;2023-03-12T01:13:16;-2.40;1.00
4813;DHT22;2420;51.202;8.698;2023-03-12T01:15:42;-2.30;1.00
4813;DHT22;2420;51.202;8.698;2023-03-12T01:18:07;-2.20;1.00
4813;DHT22;2420;51.202;8.698;2023-03-12T01:20:33;-2.30;1.00
4813;DHT22;2420;51.202;8.698;2023-03-12T01:22:58;-2.30;1.00
4813;DHT22;2420;51.202;8.698;2023-03-12T01:25:24;-2.40;1.00
4813;DHT22;2420;51.202;8.698;2023-03-12T01:27:49;-2.30;1.00
4813;DHT22;2420;51.202;8.698;2023-03-12T01:30:15;-2.30;1.00
4813;DHT22;2420;51.202;8.698;2023-03-12T01:32:41;-2.40;1.00
4813;DHT22;2420;51.202;8.698;2023-03-12T01:35:07;-2.20;1.00
4813;DHT22;2420;51.202;8.698;2023-03-12T01:37:33;-2.30;1.00
4813;DHT22;2420;51.202;8.698;2023-03-12T01:39:58;-2.40;1.00
4813;DHT22;2420;51.202;8.698;2023-03-12T01:42:24;-2.30;1.00
4813;DHT22;2420;51.202;8.698;2023-03-12T01:44:55;-2.50;1.00
4813;DHT22;2420;51.202;8.698;2023-03-12T01:47:21;-2.40;1.00
4813;DHT22;2420;51.202;8.698;2023-03-12T01:49:48;-2.60;1.00
4813;DHT22;2420;51.202;8.698;2023-03-12T01:52:34;-2.30;1.00
4813;DHT22;2420;51.202;8.698;2023-03-12T01:55:12;-2.50;1.00
4813;DHT22;2420;51.202;8.698;2023-03-12T01:57:46;-2.40;1.00
4813;DHT22;2420;51.202;8.698;2023-03-12T02:00:22;-2.40;1.00
4813;DHT22;2420;51.202;8.698;2023-03-12T02:02:50;-2.40;1.00
4813;DHT22;2420;51.202;8.698;2023-03-12T02:07:45;-2.30;1.00
4813;DHT22;2420;51.202;8.698;2023-03-12T02:10:11;-2.20;1.00
4813;DHT22;2420;51.202;8.698;2023-03-12T02:12:36;-2.40;1.00
4813;DHT22;2420;51.202;8.698;2023-03-12T02:15:02;-2.20;1.00
4813;DHT22;2420;51.202;8.698;2023-03-12T02:17:29;-2.20;1.00
4813;DHT22;2420;51.202;8.698;2023-03-12T02:23:05;-2.20;1.00
4813;DHT22;2420;51.202;8.698;2023-03-12T02:25:38;-2.40;1.00
4813;DHT22;2420;51.202;8.698;2023-03-12T02:28:08;-2.40;1.00
4813;DHT22;2420;51.202;8.698;2023-03-12T02:30:34;-2.40;1.00
4813;DHT22;2420;51.202;8.698;2023-03-12T02:33:05;-2.30;1.00
4813;DHT22;2420;51.202;8.698;2023-03-12T02:35:31;-2.30;1.00
4813;DHT22;2420;51.202;8.698;2023-03-12T02:37:56;-2.40;1.00
4813;DHT22;2420;51.202;8.698;2023-03-12T02:40:32;-2.20;1.00
4813;DHT22;2420;51.202;8.698;2023-03-12T02:43:00;-2.20;1.00
4813;DHT22;2420;51.202;8.698;2023-03-12T02:45:26;-2.30;1.00
4813;DHT22;2420;51.202;8.698;2023-03-12T02:47:54;-2.40;1.00
4813;DHT22;2420;51.202;8.698;2023-03-12T02:50:19;-2.20;1.00
4813;DHT22;2420;51.202;8.698;2023-03-12T02:52:45;-2.30;1.00
4813;DHT22;2420;51.202;8.698;2023-03-12T02:55:10;-2.50;1.00
4813;DHT22;2420;51.202;8.698;2023-03-12T02:57:36;-2.40;1.00
4813;DHT22;2420;51.202;8.698;2023-03-12T03:00:06;-2.20;1.00
4813;DHT22;2420;51.202;8.698;2023-03-12T03:02:36;-2.10;1.00
4813;DHT22;2420;51.202;8.698;2023-03-12T03:05:01;-2.20;1.00
4813;DHT22;2420;51.202;8.698;2023-03-12T03:07:27;-2.20;1.00
4813;DHT22;2420;51.202;8.698;2023-03-12T03:09:52;-2.00;1.00
4813;DHT22;2420;51.202;8.698;2023-03-12T03:12:18;-2.20;1.00
4813;DHT22;2420;51.202;8.698;2023-03-12T03:14:44;-2.00;1.00
4813;DHT22;2420;51.202;8.698;2023-03-12T03:17:09;-2.20;1.00
4813;DHT22;2420;51.202;8.698;2023-03-12T03:19:35;-2.20;1.00
4813;DHT22;2420;51.202;8.698;2023-03-12T03:22:00;-2.20;1.00
4813;DHT22;2420;51.202;8.698;2023-03-12T03:24:26;-2.10;1.00
4813;DHT22;2420;51.202;8.698;2023-03-12T03:26:51;-2.20;1.00
4813;DHT22;2420;51.202;8.698;2023-03-12T03:29:17;-2.20;1.00
4813;DHT22;2420;51.202;8.698;2023-03-12T03:31:42;-2.30;1.00
4813;DHT22;2420;51.202;8.698;2023-03-12T03:34:08;-2.00;1.00
4813;DHT22;2420;51.202;8.698;2023-03-12T03:36:33;-2.10;1.00
4813;DHT22;2420;51.202;8.698;2023-03-12T03:38:59;-2.00;1.00
4813;DHT22;2420;51.202;8.698;2023-03-12T03:41:24;-2.10;1.00
4813;DHT22;2420;51.202;8.698;2023-03-12T03:43:55;-2.00;1.00
4813;DHT22;2420;51.202;8.698;2023-03-12T03:46:20;-2.00;1.00
4813;DHT22;2420;51.202;8.698;2023-03-12T03:48:46;-1.90;1.00
4813;DHT22;2420;51.202;8.698;2023-03-12T03:51:12;-2.00;1.00
4813;DHT22;2420;51.202;8.698;2023-03-12T03:53:37;-1.90;1.00
4813;DHT22;2420;51.202;8.698;2023-03-12T03:56:11;-2.10;1.00
4813;DHT22;2420;51.202;8.698;2023-03-12T03:58:37;-1.90;1.00
4813;DHT22;2420;51.202;8.698;2023-03-12T04:01:03;-2.20;1.00
4813;DHT22;2420;51.202;8.698;2023-03-12T04:03:29;-1.80;1.00
4813;DHT22;2420;51.202;8.698;2023-03-12T04:06:04;-2.10;1.00
4813;DHT22;2420;51.202;8.698;2023-03-12T04:08:31;-2.20;1.00
4813;DHT22;2420;51.202;8.698;2023-03-12T04:10:57;-2.00;1.00
4813;DHT22;2420;51.202;8.698;2023-03-12T04:13:23;-2.10;1.00
4813;DHT22;2420;51.202;8.698;2023-03-12T04:15:50;-2.20;1.00
4813;DHT22;2420;51.202;8.698;2023-03-12T04:18:17;-2.20;1.00
4813;DHT22;2420;51.202;8.698;2023-03-12T04:20:43;-2.00;1.00
4813;DHT22;2420;51.202;8.698;2023-03-12T04:23:08;-2.20;1.00
4813;DHT22;2420;51.202;8.698;2023-03-12T04:25:34;-2.30;1.00
4813;DHT22;2420;51.202;8.698;2023-03-12T04:28:00;-2.20;1.00
4813;DHT22;2420;51.202;8.698;2023-03-12T04:30:26;-2.10;1.00
4813;DHT22;2420;51.202;8.698;2023-03-12T04:32:52;-2.10;1.00
4813;DHT22;2420;51.202;8.698;2023-03-12T04:35:18;-2.20;1.00
4813;DHT22;2420;51.202;8.698;2023-03-12T04:37:44;-2.00;1.00
4813;DHT22;2420;51.202;8.698;2023-03-12T04:40:10;-2.00;1.00
4813;DHT22;2420;51.202;8.698;2023-03-12T04:42:36;-1.90;1.00
4813;DHT22;2420;51.202;8.698;2023-03-12T04:45:03;-2.10;1.00
4813;DHT22;2420;51.202;8.698;2023-03-12T04:47:31;-2.10;1.00
4813;DHT22;2420;51.202;8.698;2023-03-12T04:49:57;-2.10;1.00
4813;DHT22;2420;51.202;8.698;2023-03-12T04:52:22;-2.20;1.00
4813;DHT22;2420;51.202;8.698;2023-03-12T04:54:48;-2.30;1.00
4813;DHT22;2420;51.202;8.698;2023-03-12T04:57:13;-2.30;1.00
4813;DHT22;2420;51.202;8.698;2023-03-12T04:59:39;-2.40;1.00
4813;DHT22;2420;51.202;8.698;2023-03-12T05:02:04;-2.40;1.00
4813;DHT22;2420;51.202;8.698;2023-03-12T05:04:30;-2.50;1.00
4813;DHT22;2420;51.202;8.698;2023-03-12T05:06:55;-2.50;1.00
4813;DHT22;2420;51.202;8.698;2023-03-12T05:09:21;-2.60;1.00
4813;DHT22;2420;51.202;8.698;2023-03-12T05:11:47;-2.40;1.00
4813;DHT22;2420;51.202;8.698;2023-03-12T05:14:12;-2.50;1.00
4813;DHT22;2420;51.202;8.698;2023-03-12T05:16:38;-2.40;1.00
4813;DHT22;2420;51.202;8.698;2023-03-12T05:19:04;-2.50;1.00
4813;DHT22;2420;51.202;8.698;2023-03-12T05:21:29;-2.30;1.00
4813;DHT22;2420;51.202;8.698;2023-03-12T05:23:55;-2.30;1.00
4813;DHT22;2420;51.202;8.698;2023-03-12T05:26:27;-2.40;1.00
4813;DHT22;2420;51.202;8.698;2023-03-12T05:28:53;-2.40;1.00
4813;DHT22;2420;51.202;8.698;2023-03-12T05:31:20;-2.30;1.00
4813;DHT22;2420;51.202;8.698;2023-03-12T05:33:46;-2.20;1.00
4813;DHT22;2420;51.202;8.698;2023-03-12T05:36:12;-2.10;1.00
4813;DHT22;2420;51.202;8.698;2023-03-12T05:38:38;-2.10;1.00
4813;DHT22;2420;51.202;8.698;2023-03-12T05:41:05;-2.10;1.00
4813;DHT22;2420;51.202;8.698;2023-03-12T05:43:31;-2.10;1.00
4813;DHT22;2420;51.202;8.698;2023-03-12T05:46:01;-2.10;1.00
4813;DHT22;2420;51.202;8.698;2023-03-12T05:48:27;-1.90;1.00
4813;DHT22;2420;51.202;8.698;2023-03-12T05:50:53;-1.90;1.00
4813;DHT22;2420;51.202;8.698;2023-03-12T05:53:19;-2.20;1.00
4813;DHT22;2420;51.202;8.698;2023-03-12T05:55:44;-2.10;1.00
4813;DHT22;2420;51.202;8.698;2023-03-12T05:58:11;-1.80;1.00
4813;DHT22;2420;51.202;8.698;2023-03-12T06:00:36;-2.00;1.00
4813;DHT22;2420;51.202;8.698;2023-03-12T06:03:05;-2.10;1.00
4813;DHT22;2420;51.202;8.698;2023-03-12T06:05:32;-2.00;1.00
4813;DHT22;2420;51.202;8.698;2023-03-12T06:07:58;-2.10;1.00
4813;DHT22;2420;51.202;8.698;2023-03-12T06:10:23;-2.10;1.00
4813;DHT22;2420;51.202;8.698;2023-03-12T06:12:49;-2.00;1.00
4813;DHT22;2420;51.202;8.698;2023-03-12T06:15:14;-2.00;1.00
4813;DHT22;2420;51.202;8.698;2023-03-12T06:17:40;-1.90;1.00
4813;DHT22;2420;51.202;8.698;2023-03-12T06:20:06;-2.00;1.00
4813;DHT22;2420;51.202;8.698;2023-03-12T06:22:32;-1.90;1.00
4813;DHT22;2420;51.202;8.698;2023-03-12T06:24:58;-2.00;1.00
4813;DHT22;2420;51.202;8.698;2023-03-12T06:27:23;-2.00;1.00
4813;DHT22;2420;51.202;8.698;2023-03-12T06:29:49;-1.80;1.00
4813;DHT22;2420;51.202;8.698;2023-03-12T06:32:15;-1.60;1.00
4813;DHT22;2420;51.202;8.698;2023-03-12T06:34:42;-1.70;1.00
4813;DHT22;2420;51.202;8.698;2023-03-12T06:37:08;-1.50;1.00
4813;DHT22;2420;51.202;8.698;2023-03-12T06:39:34;-1.60;1.00
4813;DHT22;2420;51.202;8.698;2023-03-12T06:42:00;-1.40;1.00
4813;DHT22;2420;51.202;8.698;2023-03-12T06:44:25;-1.40;1.00
4813;DHT22;2420;51.202;8.698;2023-03-12T06:46:51;-1.60;1.00
4813;DHT22;2420;51.202;8.698;2023-03-12T06:49:16;-1.40;1.00
4813;DHT22;2420;51.202;8.698;2023-03-12T06:51:42;-1.40;1.00
4813;DHT22;2420;51.202;8.698;2023-03-12T06:54:08;-1.30;1.00
4813;DHT22;2420;51.202;8.698;2023-03-12T06:56:33;-1.30;1.00
4813;DHT22;2420;51.202;8.698;2023-03-12T06:58:59;-1.20;1.00
4813;DHT22;2420;51.202;8.698;2023-03-12T07:01:24;-1.30;1.00
4813;DHT22;2420;51.202;8.698;2023-03-12T07:03:50;-1.00;1.00
4813;DHT22;2420;51.202;8.698;2023-03-12T07:06:18;-1.10;1.00
4813;DHT22;2420;51.202;8.698;2023-03-12T07:08:44;-1.10;1.00
4813;DHT22;2420;51.202;8.698;2023-03-12T07:11:10;-1.20;1.00
4813;DHT22;2420;51.202;8.698;2023-03-12T07:13:36;-0.90;1.00
4813;DHT22;2420;51.202;8.698;2023-03-12T07:16:02;-0.80;1.00
4813;DHT22;2420;51.202;8.698;2023-03-12T07:18:27;-0.90;1.00
4813;DHT22;2420;51.202;8.698;2023-03-12T07:20:53;-0.90;1.00
4813;DHT22;2420;51.202;8.698;2023-03-12T07:23:20;-0.70;1.00
4813;DHT22;2420;51.202;8.698;2023-03-12T07:25:46;-0.50;1.00
4813;DHT22;2420;51.202;8.698;2023-03-12T07:28:12;-0.60;1.00
4813;DHT22;2420;51.202;8.698;2023-03-12T07:30:39;-0.60;1.00
4813;DHT22;2420;51.202;8.698;2023-03-12T07:33:07;-0.30;1.00
4813;DHT22;2420;51.202;8.698;2023-03-12T07:35:34;-0.40;1.00
4813;DHT22;2420;51.202;8.698;2023-03-12T07:38:01;-0.20;1.00
4813;DHT22;2420;51.202;8.698;2023-03-12T07:40:27;-0.30;1.00
4813;DHT22;2420;51.202;8.698;2023-03-12T07:42:53;-0.40;1.00
4813;DHT22;2420;51.202;8.698;2023-03-12T07:45:19;-0.30;1.00
4813;DHT22;2420;51.202;8.698;2023-03-12T07:47:45;-0.10;1.00
4813;DHT22;2420;51.202;8.698;2023-03-12T07:50:11;0.00;1.00
4813;DHT22;2420;51.202;8.698;2023-03-12T07:52:37;-0.10;1.00
4813;DHT22;2420;51.202;8.698;2023-03-12T07:55:02;0.00;1.00
4813;DHT22;2420;51.202;8.698;2023-03-12T07:57:28;-0.30;1.00
4813;DHT22;2420;51.202;8.698;2023-03-12T07:59:54;-0.20;1.00
4813;DHT22;2420;51.202;8.698;2023-03-12T08:02:19;-0.30;1.00
4813;DHT22;2420;51.202;8.698;2023-03-12T08:04:45;-0.10;1.00
4813;DHT22;2420;51.202;8.698;2023-03-12T08:07:10;0.00;1.00
4813;DHT22;2420;51.202;8.698;2023-03-12T08:09:37;-0.10;1.00
4813;DHT22;2420;51.202;8.698;2023-03-12T08:12:03;0.00;1.00
4813;DHT22;2420;51.202;8.698;2023-03-12T08:14:29;-0.10;1.00
4813;DHT22;2420;51.202;8.698;2023-03-12T08:16:59;-0.10;1.00
4813;DHT22;2420;51.202;8.698;2023-03-12T08:19:25;0.00;1.00
4813;DHT22;2420;51.202;8.698;2023-03-12T08:21:51;0.20;1.00
4813;DHT22;2420;51.202;8.698;2023-03-12T08:24:19;0.00;1.00
4813;DHT22;2420;51.202;8.698;2023-03-12T08:26:45;0.10;1.00
4813;DHT22;2420;51.202;8.698;2023-03-12T08:29:10;-0.10;1.00
4813;DHT22;2420;51.202;8.698;2023-03-12T08:31:36;0.00;1.00
4813;DHT22;2420;51.202;8.698;2023-03-12T08:34:02;0.00;1.00
4813;DHT22;2420;51.202;8.698;2023-03-12T08:36:27;0.00;1.00
4813;DHT22;2420;51.202;8.698;2023-03-12T08:38:53;0.10;1.00
4813;DHT22;2420;51.202;8.698;2023-03-12T08:41:19;0.00;1.00
4813;DHT22;2420;51.202;8.698;2023-03-12T08:43:44;-0.10;1.00
4813;DHT22;2420;51.202;8.698;2023-03-12T08:46:11;0.00;1.00
4813;DHT22;2420;51.202;8.698;2023-03-12T08:48:36;-0.10;1.00
4813;DHT22;2420;51.202;8.698;2023-03-12T08:51:02;-0.10;1.00
4813;DHT22;2420;51.202;8.698;2023-03-12T08:53:29;-0.10;1.00
4813;DHT22;2420;51.202;8.698;2023-03-12T08:55:56;0.10;1.00
4813;DHT22;2420;51.202;8.698;2023-03-12T08:58:23;0.10;1.00
4813;DHT22;2420;51.202;8.698;2023-03-12T09:00:50;0.00;1.00
4813;DHT22;2420;51.202;8.698;2023-03-12T09:03:16;0.00;1.00
4813;DHT22;2420;51.202;8.698;2023-03-12T09:05:43;0.10;1.00
4813;DHT22;2420;51.202;8.698;2023-03-12T09:08:09;0.00;1.00
4813;DHT22;2420;51.202;8.698;2023-03-12T09:10:35;0.00;1.00
4813;DHT22;2420;51.202;8.698;2023-03-12T09:13:02;-0.20;1.00
4813;DHT22;2420;51.202;8.698;2023-03-12T09:15:28;-0.10;1.00
4813;DHT22;2420;51.202;8.698;2023-03-12T09:17:55;0.00;1.00
4813;DHT22;2420;51.202;8.698;2023-03-12T09:20:22;0.00;1.00
4813;DHT22;2420;51.202;8.698;2023-03-12T09:22:48;0.00;1.00
4813;DHT22;2420;51.202;8.698;2023-03-12T09:25:14;0.00;1.00
4813;DHT22;2420;51.202;8.698;2023-03-12T09:27:42;0.10;1.00
4813;DHT22;2420;51.202;8.698;2023-03-12T09:30:13;0.10;1.00
4813;DHT22;2420;51.202;8.698;2023-03-12T09:32:39;0.10;1.00
4813;DHT22;2420;51.202;8.698;2023-03-12T09:35:06;0.10;1.00
4813;DHT22;2420;51.202;8.698;2023-03-12T09:37:32;-0.10;1.00
4813;DHT22;2420;51.202;8.698;2023-03-12T09:39:58;0.00;1.00
4813;DHT22;2420;51.202;8.698;2023-03-12T09:42:28;0.10;1.00
4813;DHT22;2420;51.202;8.698;2023-03-12T09:44:56;0.20;1.00
4813;DHT22;2420;51.202;8.698;2023-03-12T09:47:28;0.40;1.00
4813;DHT22;2420;51.202;8.698;2023-03-12T09:50:00;0.10;1.00
4813;DHT22;2420;51.202;8.698;2023-03-12T09:52:31;-0.10;1.00
4813;DHT22;2420;51.202;8.698;2023-03-12T09:55:11;0.30;1.00
4813;DHT22;2420;51.202;8.698;2023-03-12T09:57:40;0.40;1.00
4813;DHT22;2420;51.202;8.698;2023-03-12T10:06:09;0.20;1.00
4813;DHT22;2420;51.202;8.698;2023-03-12T10:11:54;0.40;1.00
4813;DHT22;2420;51.202;8.698;2023-03-12T10:23:06;0.80;1.00
4813;DHT22;2420;51.202;8.698;2023-03-12T10:28:20;0.80;1.00
4813;DHT22;2420;51.202;8.698;2023-03-12T10:30:53;0.70;1.00
4813;DHT22;2420;51.202;8.698;2023-03-12T10:33:19;0.80;1.00
4813;DHT22;2420;51.202;8.698;2023-03-12T10:35:46;0.80;1.00
4813;DHT22;2420;51.202;8.698;2023-03-12T10:38:17;0.90;1.00
4813;DHT22;2420;51.202;8.698;2023-03-12T10:40:44;1.00;1.00
4813;DHT22;2420;51.202;8.698;2023-03-12T10:43:09;0.80;1.00
4813;DHT22;2420;51.202;8.698;2023-03-12T10:48:28;0.80;1.00
4813;DHT22;2420;51.202;8.698;2023-03-12T10:51:10;1.00;1.00
4813;DHT22;2420;51.202;8.698;2023-03-12T10:53:44;0.70;1.00
4813;DHT22;2420;51.202;8.698;2023-03-12T10:56:19;0.90;1.00
4813;DHT22;2420;51.202;8.698;2023-03-12T10:58:50;1.00;1.00
4813;DHT22;2420;51.202;8.698;2023-03-12T11:03:48;1.00;1.00
4813;DHT22;2420;51.202;8.698;2023-03-12T11:06:29;1.00;1.00
4813;DHT22;2420;51.202;8.698;2023-03-12T11:11:34;1.00;1.00
4813;DHT22;2420;51.202;8.698;2023-03-12T11:14:26;1.30;1.00
4813;DHT22;2420;51.202;8.698;2023-03-12T11:16:54;1.10;1.00
4813;DHT22;2420;51.202;8.698;2023-03-12T11:19:33;1.10;1.00
4813;DHT22;2420;51.202;8.698;2023-03-12T11:22:07;1.30;1.00
4813;DHT22;2420;51.202;8.698;2023-03-12T11:24:35;1.10;1.00
4813;DHT22;2420;51.202;8.698;2023-03-12T11:30:02;1.30;1.00
4813;DHT22;2420;51.202;8.698;2023-03-12T11:32:33;1.20;1.00
4813;DHT22;2420;51.202;8.698;2023-03-12T11:35:01;1.40;1.00
4813;DHT22;2420;51.202;8.698;2023-03-12T11:48:37;1.60;1.00
4813;DHT22;2420;51.202;8.698;2023-03-12T12:02:15;1.80;1.00
4813;DHT22;2420;51.202;8.698;2023-03-12T12:07:46;1.70;1.00
4813;DHT22;2420;51.202;8.698;2023-03-12T12:13:30;1.70;1.00
4813;DHT22;2420;51.202;8.698;2023-03-12T12:22:02;1.70;1.00
4813;DHT22;2420;51.202;8.698;2023-03-12T12:24:41;1.90;1.00
4813;DHT22;2420;51.202;8.698;2023-03-12T12:27:26;1.80;1.00
4813;DHT22;2420;51.202;8.698;2023-03-12T12:35:36;2.00;1.00
4813;DHT22;2420;51.202;8.698;2023-03-12T12:40:51;2.10;1.00
4813;DHT22;2420;51.202;8.698;2023-03-12T12:43:40;2.20;1.00
4813;DHT22;2420;51.202;8.698;2023-03-12T12:46:14;2.20;1.00
4813;DHT22;2420;51.202;8.698;2023-03-12T12:48:45;2.40;1.00
4813;DHT22;2420;51.202;8.698;2023-03-12T12:51:14;2.10;1.00
4813;DHT22;2420;51.202;8.698;2023-03-12T12:56:17;2.40;1.00
4813;DHT22;2420;51.202;8.698;2023-03-12T12:58:48;2.50;1.00
4813;DHT22;2420;51.202;8.698;2023-03-12T13:01:17;2.50;1.00
4813;DHT22;2420;51.202;8.698;2023-03-12T13:03:44;2.50;1.00
4813;DHT22;2420;51.202;8.698;2023-03-12T13:06:10;2.50;1.00
4813;DHT22;2420;51.202;8.698;2023-03-12T13:11:05;2.40;1.00
4813;DHT22;2420;51.202;8.698;2023-03-12T13:16:47;2.40;1.00
4813;DHT22;2420;51.202;8.698;2023-03-12T13:29:35;2.70;1.00
4813;DHT22;2420;51.202;8.698;2023-03-12T13:32:02;2.80;1.00
4813;DHT22;2420;51.202;8.698;2023-03-12T13:34:31;2.90;1.00
4813;DHT22;2420;51.202;8.698;2023-03-12T13:37:00;2.80;1.00
4813;DHT22;2420;51.202;8.698;2023-03-12T13:39:35;2.80;1.00
4813;DHT22;2420;51.202;8.698;2023-03-12T13:44:50;2.80;1.00
4813;DHT22;2420;51.202;8.698;2023-03-12T13:47:25;2.90;1.00
4813;DHT22;2420;51.202;8.698;2023-03-12T13:49:55;2.80;1.00
4813;DHT22;2420;51.202;8.698;2023-03-12T13:52:36;2.70;1.00
4813;DHT22;2420;51.202;8.698;2023-03-12T13:55:22;3.00;1.00
4813;DHT22;2420;51.202;8.698;2023-03-12T13:57:53;2.80;1.00
4813;DHT22;2420;51.202;8.698;2023-03-12T14:00:42;2.80;1.00
4813;DHT22;2420;51.202;8.698;2023-03-12T14:03:34;2.90;1.00
4813;DHT22;2420;51.202;8.698;2023-03-12T14:17:45;3.20;1.00
4813;DHT22;2420;51.202;8.698;2023-03-12T14:20:20;3.30;1.00
4813;DHT22;2420;51.202;8.698;2023-03-12T14:22:53;3.10;1.00
4813;DHT22;2420;51.202;8.698;2023-03-12T14:25:37;3.20;1.00
4813;DHT22;2420;51.202;8.698;2023-03-12T14:28:11;3.30;1.00
4813;DHT22;2420;51.202;8.698;2023-03-12T14:33:13;3.40;1.00
4813;DHT22;2420;51.202;8.698;2023-03-12T14:35:50;3.40;1.00
4813;DHT22;2420;51.202;8.698;2023-03-12T14:38:33;3.30;1.00
4813;DHT22;2420;51.202;8.698;2023-03-12T14:41:19;3.30;1.00
4813;DHT22;2420;51.202;8.698;2023-03-12T14:43:50;3.50;1.00
4813;DHT22;2420;51.202;8.698;2023-03-12T14:46:23;3.30;1.00
4813;DHT22;2420;51.202;8.698;2023-03-12T14:48:51;3.60;1.00
4813;DHT22;2420;51.202;8.698;2023-03-12T14:51:29;3.50;1.00
4813;DHT22;2420;51.202;8.698;2023-03-12T14:53:55;3.50;1.00
4813;DHT22;2420;51.202;8.698;2023-03-12T14:56:30;3.50;1.00
4813;DHT22;2420;51.202;8.698;2023-03-12T14:58:59;3.50;1.00
4813;DHT22;2420;51.202;8.698;2023-03-12T15:01:30;3.40;1.00
4813;DHT22;2420;51.202;8.698;2023-03-12T15:04:02;3.40;1.00
4813;DHT22;2420;51.202;8.698;2023-03-12T15:06:31;3.60;1.00
4813;DHT22;2420;51.202;8.698;2023-03-12T15:08:59;3.50;1.00
4813;DHT22;2420;51.202;8.698;2023-03-12T15:11:28;3.30;1.00
4813;DHT22;2420;51.202;8.698;2023-03-12T15:14:00;3.50;1.00
4813;DHT22;2420;51.202;8.698;2023-03-12T15:16:26;3.50;1.00
4813;DHT22;2420;51.202;8.698;2023-03-12T15:18:52;3.80;1.00
4813;DHT22;2420;51.202;8.698;2023-03-12T15:21:18;3.60;1.00
4813;DHT22;2420;51.202;8.698;2023-03-12T15:23:45;3.50;1.00
4813;DHT22;2420;51.202;8.698;2023-03-12T15:28:55;3.60;1.00
4813;DHT22;2420;51.202;8.698;2023-03-12T15:31:21;3.70;1.00
4813;DHT22;2420;51.202;8.698;2023-03-12T15:34:02;3.70;1.00
4813;DHT22;2420;51.202;8.698;2023-03-12T15:36:29;3.70;1.00
4813;DHT22;2420;51.202;8.698;2023-03-12T15:39:02;3.60;1.00
4813;DHT22;2420;51.202;8.698;2023-03-12T15:41:40;3.80;1.00
4813;DHT22;2420;51.202;8.698;2023-03-12T15:44:16;3.70;1.00
4813;DHT22;2420;51.202;8.698;2023-03-12T15:46:45;3.60;1.00
4813;DHT22;2420;51.202;8.698;2023-03-12T15:49:21;3.70;1.00
4813;DHT22;2420;51.202;8.698;2023-03-12T15:55:03;3.80;1.00
4813;DHT22;2420;51.202;8.698;2023-03-12T15:57:30;3.50;1.00
4813;DHT22;2420;51.202;8.698;2023-03-12T16:02:57;3.80;1.00
4813;DHT22;2420;51.202;8.698;2023-03-12T16:05:34;3.70;1.00
4813;DHT22;2420;51.202;8.698;2023-03-12T16:08:09;3.70;1.00
4813;DHT22;2420;51.202;8.698;2023-03-12T16:10:37;4.00;1.00
4813;DHT22;2420;51.202;8.698;2023-03-12T16:13:04;3.90;1.00
4813;DHT22;2420;51.202;8.698;2023-03-12T16:15:32;3.70;1.00
4813;DHT22;2420;51.202;8.698;2023-03-12T16:18:00;4.00;1.00
4813;DHT22;2420;51.202;8.698;2023-03-12T16:20:25;3.90;1.00
4813;DHT22;2420;51.202;8.698;2023-03-12T16:22:51;3.80;1.00
4813;DHT22;2420;51.202;8.698;2023-03-12T16:25:17;4.10;1.00
4813;DHT22;2420;51.202;8.698;2023-03-12T16:27:50;4.00;1.00
4813;DHT22;2420;51.202;8.698;2023-03-12T16:30:28;3.80;1.00
4813;DHT22;2420;51.202;8.698;2023-03-12T16:32:54;3.90;1.00
4813;DHT22;2420;51.202;8.698;2023-03-12T16:35:20;4.00;1.00
4813;DHT22;2420;51.202;8.698;2023-03-12T16:37:46;4.00;1.00
4813;DHT22;2420;51.202;8.698;2023-03-12T16:40:13;4.10;1.00
4813;DHT22;2420;51.202;8.698;2023-03-12T16:42:43;3.90;1.00
4813;DHT22;2420;51.202;8.698;2023-03-12T16:45:12;4.20;1.00
4813;DHT22;2420;51.202;8.698;2023-03-12T16:47:38;4.20;1.00
4813;DHT22;2420;51.202;8.698;2023-03-12T16:50:19;4.00;1.00
4813;DHT22;2420;51.202;8.698;2023-03-12T16:52:45;4.00;1.00
4813;DHT22;2420;51.202;8.698;2023-03-12T16:55:14;4.30;1.00
4813;DHT22;2420;51.202;8.698;2023-03-12T16:57:44;4.00;1.00
4813;DHT22;2420;51.202;8.698;2023-03-12T17:00:14;4.00;1.00
4813;DHT22;2420;51.202;8.698;2023-03-12T17:02:40;4.20;1.00
4813;DHT22;2420;51.202;8.698;2023-03-12T17:05:06;4.30;1.00
4813;DHT22;2420;51.202;8.698;2023-03-12T17:07:32;4.10;1.00
4813;DHT22;2420;51.202;8.698;2023-03-12T17:09:57;3.90;1.00
4813;DHT22;2420;51.202;8.698;2023-03-12T17:12:30;4.20;1.00
4813;DHT22;2420;51.202;8.698;2023-03-12T17:14:57;4.10;1.00
4813;DHT22;2420;51.202;8.698;2023-03-12T17:17:23;4.30;1.00
4813;DHT22;2420;51.202;8.698;2023-03-12T17:19:49;4.30;1.00
4813;DHT22;2420;51.202;8.698;2023-03-12T17:22:17;4.30;1.00
4813;DHT22;2420;51.202;8.698;2023-03-12T17:24:43;4.10;1.00
4813;DHT22;2420;51.202;8.698;2023-03-12T17:27:09;4.20;1.00
4813;DHT22;2420;51.202;8.698;2023-03-12T17:29:35;4.20;1.00
4813;DHT22;2420;51.202;8.698;2023-03-12T17:32:00;4.00;1.00
4813;DHT22;2420;51.202;8.698;2023-03-12T17:34:26;4.30;1.00
4813;DHT22;2420;51.202;8.698;2023-03-12T17:36:51;4.10;1.00
4813;DHT22;2420;51.202;8.698;2023-03-12T17:39:17;4.00;1.00
4813;DHT22;2420;51.202;8.698;2023-03-12T17:41:42;4.00;1.00
4813;DHT22;2420;51.202;8.698;2023-03-12T17:44:08;4.00;1.00
4813;DHT22;2420;51.202;8.698;2023-03-12T17:46:35;4.00;1.00
4813;DHT22;2420;51.202;8.698;2023-03-12T17:49:02;3.90;1.00
4813;DHT22;2420;51.202;8.698;2023-03-12T17:51:28;3.80;1.00
4813;DHT22;2420;51.202;8.698;2023-03-12T17:53:53;4.10;1.00
4813;DHT22;2420;51.202;8.698;2023-03-12T17:56:19;4.20;1.00
4813;DHT22;2420;51.202;8.698;2023-03-12T17:58:45;4.20;1.00
4813;DHT22;2420;51.202;8.698;2023-03-12T18:01:11;4.00;1.00
4813;DHT22;2420;51.202;8.698;2023-03-12T18:03:36;4.10;1.00
4813;DHT22;2420;51.202;8.698;2023-03-12T18:06:02;4.10;1.00
4813;DHT22;2420;51.202;8.698;2023-03-12T18:08:28;4.10;1.00
4813;DHT22;2420;51.202;8.698;2023-03-12T18:10:54;4.10;1.00
4813;DHT22;2420;51.202;8.698;2023-03-12T18:13:19;4.20;1.00
4813;DHT22;2420;51.202;8.698;2023-03-12T18:15:52;4.10;1.00
4813;DHT22;2420;51.202;8.698;2023-03-12T18:18:18;4.30;1.00
4813;DHT22;2420;51.202;8.698;2023-03-12T18:20:43;4.40;1.00
4813;DHT22;2420;51.202;8.698;2023-03-12T18:23:09;4.90;1.00
4813;DHT22;2420;51.202;8.698;2023-03-12T18:25:36;5.10;1.00
4813;DHT22;2420;51.202;8.698;2023-03-12T18:28:02;5.00;1.00
4813;DHT22;2420;51.202;8.698;2023-03-12T18:30:28;5.10;1.00
4813;DHT22;2420;51.202;8.698;2023-03-12T18:32:53;5.20;1.00
4813;DHT22;2420;51.202;8.698;2023-03-12T18:35:19;5.30;1.00